Time;durP1;ratioP1;P1;durP2;ratioP2;P2;SDS_P1;SDS_P2;PMS_P1;PMS_P2;Temp;Humidity;BMP_temperature;BMP_pressure;BME280_temperature;BME280_humidity;BME280_pressure;Samples;Min_cycle;Max_cycle;Signal;HPM_P1;HPM_P2
2021/10/30 00:01:20;;;;;;;5.65;3.70;;;21.40;53.60;;;;;;6241177;28;20483;-71
2021/10/30 00:04:21;;;;;;;3.38;3.08;;;21.40;53.00;;;;;;6242975;28;20559;-72
2021/10/30 00:07:21;;;;;;;4.25;3.25;;;21.40;53.00;;;;;;6250703;28;20735;-71
2021/10/30 00:10:22;;;;;;;3.65;3.20;;;21.40;53.00;;;;;;6266924;28;20025;-71
2021/10/30 00:13:22;;;;;;;4.35;3.38;;;21.40;53.00;;;;;;6267251;28;20021;-71
2021/10/30 00:16:23;;;;;;;4.30;3.60;;;21.40;53.00;;;;;;6266630;28;20099;-71
2021/10/30 00:19:23;;;;;;;4.95;3.35;;;21.40;53.00;;;;;;6245072;28;20079;-70
2021/10/30 00:22:24;;;;;;;3.47;2.80;;;21.40;53.00;;;;;;6247742;28;20044;-70
2021/10/30 00:25:25;;;;;;;4.68;3.33;;;21.40;53.00;;;;;;6265123;28;20032;-70
2021/10/30 00:28:26;;;;;;;3.50;3.03;;;21.40;53.00;;;;;;6266719;28;20375;-70
2021/10/30 00:31:26;;;;;;;4.30;3.55;;;21.40;53.00;;;;;;6266061;28;20048;-70
2021/10/30 00:34:27;;;;;;;4.40;3.28;;;21.40;53.00;;;;;;6269398;28;20025;-70
2021/10/30 00:37:27;;;;;;;3.90;3.20;;;21.40;53.00;;;;;;6271837;28;20086;-70
2021/10/30 00:40:28;;;;;;;3.47;3.00;;;21.40;53.00;;;;;;6269926;28;20036;-70
2021/10/30 00:43:29;;;;;;;3.33;3.00;;;21.40;53.00;;;;;;6270039;28;20104;-70
2021/10/30 00:46:30;;;;;;;3.60;3.10;;;21.40;53.00;;;;;;6266549;28;20025;-70
2021/10/30 00:49:32;;;;;;;3.13;2.80;;;21.40;53.10;;;;;;6246876;28;20502;-70
2021/10/30 00:52:34;;;;;;;3.38;2.78;;;21.40;53.00;;;;;;6246645;28;20070;-70
2021/10/30 00:55:37;;;;;;;3.72;3.20;;;21.40;53.10;;;;;;6246626;28;20055;-70
2021/10/30 00:58:39;;;;;;;4.25;3.47;;;21.40;53.10;;;;;;6268966;28;20041;-71
2021/10/30 01:01:40;;;;;;;4.15;3.05;;;21.40;53.10;;;;;;6263865;28;20033;-70
2021/10/30 01:04:41;;;;;;;4.72;2.97;;;21.40;53.10;;;;;;6271633;28;20108;-70
2021/10/30 01:07:41;;;;;;;3.60;3.20;;;21.40;53.10;;;;;;6270652;28;20033;-70
2021/10/30 01:10:42;;;;;;;3.40;3.10;;;21.40;53.00;;;;;;6270839;28;20116;-70
2021/10/30 01:13:43;;;;;;;4.38;3.50;;;21.40;53.10;;;;;;6251718;28;20040;-70
2021/10/30 01:17:01;;;;;;;3.75;3.03;;;21.40;53.00;;;;;;6248653;28;20029;-70
2021/10/30 01:20:02;;;;;;;4.72;3.30;;;21.40;53.10;;;;;;6246185;28;20100;-70
2021/10/30 01:23:03;;;;;;;3.75;3.00;;;21.40;53.10;;;;;;6245891;28;20041;-70
2021/10/30 01:26:04;;;;;;;3.30;2.88;;;21.40;53.10;;;;;;6256721;28;20401;-70
2021/10/30 01:29:05;;;;;;;4.05;3.28;;;21.40;53.10;;;;;;6264973;28;20028;-70
2021/10/30 01:32:06;;;;;;;5.03;3.15;;;21.40;53.10;;;;;;6259332;28;20442;-70
2021/10/30 01:35:07;;;;;;;3.60;2.90;;;21.40;53.10;;;;;;6270891;28;20021;-70
2021/10/30 01:38:09;;;;;;;4.18;3.15;;;21.40;53.10;;;;;;6270600;28;20033;-71
2021/10/30 01:41:10;;;;;;;3.75;3.10;;;21.40;53.10;;;;;;6270059;28;20025;-70
2021/10/30 01:44:11;;;;;;;3.42;3.05;;;21.40;53.10;;;;;;6264292;28;20148;-70
2021/10/30 01:47:11;;;;;;;3.83;3.03;;;21.40;53.10;;;;;;6234916;28;20483;-70
2021/10/30 01:50:14;;;;;;;3.25;2.67;;;21.40;53.10;;;;;;6219757;28;20475;-70
2021/10/30 01:53:15;;;;;;;3.50;3.20;;;21.40;53.10;;;;;;6259935;28;20457;-70
2021/10/30 01:56:17;;;;;;;3.55;3.00;;;21.40;53.10;;;;;;6266722;28;20517;-70
2021/10/30 01:59:17;;;;;;;3.78;3.10;;;21.40;53.10;;;;;;6244880;28;20026;-70
2021/10/30 02:02:18;;;;;;;4.13;3.05;;;21.40;53.10;;;;;;6244935;28;20387;-70
2021/10/30 02:05:18;;;;;;;3.67;2.95;;;21.40;53.10;;;;;;6244832;28;20038;-70
2021/10/30 02:08:20;;;;;;;3.75;2.90;;;21.40;53.10;;;;;;6244860;28;20475;-70
2021/10/30 02:11:21;;;;;;;3.75;3.10;;;21.40;53.10;;;;;;6244551;28;20029;-70
2021/10/30 02:14:21;;;;;;;3.63;3.15;;;21.40;53.10;;;;;;6268593;28;20061;-70
2021/10/30 02:17:22;;;;;;;3.60;2.90;;;21.40;53.10;;;;;;6263789;28;20040;-70
2021/10/30 02:20:22;;;;;;;4.13;3.13;;;21.40;53.10;;;;;;6244605;28;20033;-70
2021/10/30 02:23:23;;;;;;;3.65;3.03;;;21.40;53.20;;;;;;6243991;28;20034;-70
2021/10/30 02:26:23;;;;;;;3.15;2.70;;;21.40;53.20;;;;;;6259719;28;20018;-70
2021/10/30 02:29:24;;;;;;;3.97;3.25;;;21.40;53.20;;;;;;6269073;28;20434;-70
2021/10/30 02:32:26;;;;;;;3.88;2.70;;;21.40;53.20;;;;;;6252022;28;20021;-70
2021/10/30 02:35:27;;;;;;;4.22;3.20;;;21.40;53.10;;;;;;6244642;28;20033;-70
2021/10/30 02:38:28;;;;;;;3.83;3.20;;;21.40;53.20;;;;;;6268175;28;20393;-70
2021/10/30 02:41:29;;;;;;;4.43;3.22;;;21.40;53.20;;;;;;6267588;28;20040;-70
2021/10/30 02:44:31;;;;;;;3.72;2.72;;;21.40;53.20;;;;;;6268930;28;20029;-70
2021/10/30 02:47:31;;;;;;;4.93;3.40;;;21.40;53.90;;;;;;6255515;28;20388;-70
2021/10/30 02:50:32;;;;;;;3.42;2.97;;;21.40;53.20;;;;;;6251692;28;20078;-70
2021/10/30 02:53:33;;;;;;;3.35;3.05;;;21.40;53.20;;;;;;6268346;28;20525;-70
2021/10/30 02:56:34;;;;;;;3.17;2.80;;;21.40;53.20;;;;;;6268090;28;20559;-70
2021/10/30 02:59:35;;;;;;;3.28;2.92;;;21.40;53.20;;;;;;6267018;28;20028;-70
2021/10/30 03:02:35;;;;;;;4.78;3.33;;;21.40;53.20;;;;;;6268074;28;20398;-70
2021/10/30 03:05:36;;;;;;;3.50;3.03;;;21.40;53.20;;;;;;6266912;28;20032;-70
2021/10/30 03:08:36;;;;;;;4.18;3.20;;;21.40;53.20;;;;;;6266652;28;20029;-70
2021/10/30 03:11:37;;;;;;;3.33;3.00;;;21.40;53.20;;;;;;6267897;28;20047;-70
2021/10/30 03:14:38;;;;;;;3.40;3.10;;;21.40;53.20;;;;;;6266954;28;20536;-70
2021/10/30 03:17:39;;;;;;;3.53;3.13;;;21.40;53.20;;;;;;6244955;28;20083;-70
2021/10/30 03:20:39;;;;;;;3.95;2.85;;;21.40;53.20;;;;;;6242006;28;20030;-70
2021/10/30 03:23:40;;;;;;;3.35;2.88;;;21.40;53.20;;;;;;6242999;28;20119;-70
2021/10/30 03:26:40;;;;;;;4.03;2.95;;;21.40;53.30;;;;;;6260489;28;20032;-70
2021/10/30 03:29:41;;;;;;;3.50;3.10;;;21.40;53.20;;;;;;6267891;28;20100;-70
2021/10/30 03:32:42;;;;;;;3.28;2.90;;;21.40;53.20;;;;;;6265161;28;20032;-70
2021/10/30 03:35:43;;;;;;;3.67;2.78;;;21.40;53.20;;;;;;6266258;28;20086;-70
2021/10/30 03:38:43;;;;;;;3.28;2.75;;;21.40;53.30;;;;;;6267959;28;20486;-70
2021/10/30 03:41:45;;;;;;;3.53;2.90;;;21.30;53.20;;;;;;6267474;28;20112;-70
2021/10/30 03:44:46;;;;;;;3.90;3.22;;;21.40;53.20;;;;;;6266576;28;20021;-70
2021/10/30 03:47:46;;;;;;;4.28;3.10;;;21.40;53.20;;;;;;6235537;28;20076;-70
2021/10/30 03:50:47;;;;;;;3.80;3.05;;;21.40;53.20;;;;;;6218323;28;20080;-70
2021/10/30 03:53:48;;;;;;;3.85;3.00;;;21.40;53.30;;;;;;6218229;28;20033;-70
2021/10/30 03:56:49;;;;;;;2.65;2.38;;;21.40;53.20;;;;;;6233432;28;20133;-70
2021/10/30 04:00:39;;;;;;;4.32;3.13;;;21.40;53.20;;;;;;6265952;28;20555;-70
2021/10/30 04:03:39;;;;;;;3.35;2.92;;;21.30;53.20;;;;;;6267160;28;20029;-70
2021/10/30 04:06:40;;;;;;;4.38;2.80;;;21.40;53.20;;;;;;6262261;28;20029;-70
2021/10/30 04:09:41;;;;;;;3.15;2.85;;;21.40;53.30;;;;;;6246134;28;20053;-70
2021/10/30 04:12:41;;;;;;;3.83;3.05;;;21.40;53.20;;;;;;6257230;28;20091;-70
2021/10/30 04:15:42;;;;;;;3.58;2.88;;;21.40;53.30;;;;;;6272667;28;20036;-70
2021/10/30 04:18:44;;;;;;;3.60;2.63;;;21.40;53.30;;;;;;6255434;28;20494;-70
2021/10/30 04:21:44;;;;;;;3.38;2.75;;;21.40;53.30;;;;;;6247320;28;20048;-70
2021/10/30 04:24:45;;;;;;;3.42;2.88;;;21.30;53.30;;;;;;6253755;28;20498;-70
2021/10/30 04:27:45;;;;;;;3.33;2.83;;;21.40;53.30;;;;;;6237983;28;20483;-70
2021/10/30 04:30:47;;;;;;;3.35;2.78;;;21.30;53.30;;;;;;6228606;28;20029;-70
2021/10/30 04:33:48;;;;;;;3.95;2.97;;;21.40;53.30;;;;;;6272099;28;20082;-70
2021/10/30 04:36:50;;;;;;;3.85;2.95;;;21.40;53.30;;;;;;6270512;28;20061;-70
2021/10/30 04:39:52;;;;;;;3.72;3.10;;;21.40;53.30;;;;;;6271898;28;20029;-70
2021/10/30 04:42:53;;;;;;;4.45;3.28;;;21.40;53.30;;;;;;6263540;28;20025;-70
2021/10/30 04:45:54;;;;;;;3.15;2.70;;;21.40;53.30;;;;;;6245615;28;20028;-70
2021/10/30 04:48:54;;;;;;;3.90;3.40;;;21.40;53.30;;;;;;6222550;28;20104;-70
2021/10/30 04:51:55;;;;;;;4.35;3.08;;;21.40;53.30;;;;;;6240880;28;20029;-70
2021/10/30 04:54:56;;;;;;;3.55;2.70;;;21.40;53.30;;;;;;6270473;28;20029;-70
2021/10/30 04:57:56;;;;;;;3.80;2.90;;;21.40;53.30;;;;;;6271268;28;20036;-70
2021/10/30 05:00:57;;;;;;;3.63;3.00;;;21.40;53.30;;;;;;6265470;28;20021;-70
2021/10/30 05:03:58;;;;;;;3.45;3.03;;;21.40;53.30;;;;;;6247083;28;20029;-70
2021/10/30 05:06:59;;;;;;;4.05;2.90;;;21.40;53.30;;;;;;6252211;28;20048;-70
2021/10/30 05:09:59;;;;;;;3.17;2.70;;;21.40;53.30;;;;;;6256162;28;20053;-70
2021/10/30 05:13:00;;;;;;;3.47;2.70;;;21.40;53.30;;;;;;6259487;28;20405;-70
2021/10/30 05:16:00;;;;;;;3.90;3.22;;;21.40;53.30;;;;;;6270804;28;20071;-70
2021/10/30 05:19:01;;;;;;;4.38;3.05;;;21.40;53.30;;;;;;6247124;28;20031;-70
2021/10/30 05:22:02;;;;;;;2.95;2.65;;;21.40;53.30;;;;;;6250315;28;20464;-71
2021/10/30 05:25:03;;;;;;;3.22;2.65;;;21.40;53.30;;;;;;6270709;28;20032;-70
2021/10/30 05:28:04;;;;;;;3.50;2.92;;;21.40;53.30;;;;;;6270639;28;20078;-70
2021/10/30 05:31:04;;;;;;;4.07;3.00;;;21.40;53.30;;;;;;6269976;28;20040;-71
2021/10/30 05:34:05;;;;;;;3.78;3.00;;;21.40;53.30;;;;;;6254381;28;20475;-70
2021/10/30 05:37:06;;;;;;;3.53;2.78;;;21.40;53.30;;;;;;6236695;28;20026;-70
2021/10/30 05:40:09;;;;;;;3.33;2.80;;;21.40;53.30;;;;;;6221429;28;20111;-70
2021/10/30 05:43:11;;;;;;;3.15;2.80;;;21.40;53.30;;;;;;6242066;28;20040;-69
2021/10/30 05:46:12;;;;;;;3.55;2.92;;;21.30;53.30;;;;;;6246360;28;20036;-70
2021/10/30 05:49:14;;;;;;;5.65;3.00;;;21.40;53.30;;;;;;6246178;28;20018;-70
2021/10/30 05:52:15;;;;;;;3.03;2.60;;;21.40;54.00;;;;;;6257746;28;20013;-70
2021/10/30 05:55:16;;;;;;;3.50;2.97;;;21.40;53.30;;;;;;6271177;28;20032;-70
2021/10/30 05:58:17;;;;;;;4.28;3.10;;;21.40;53.30;;;;;;6268777;28;20086;-70
2021/10/30 06:01:17;;;;;;;3.60;2.97;;;21.40;53.30;;;;;;6266959;28;20039;-71
2021/10/30 06:04:18;;;;;;;3.85;3.15;;;21.40;53.30;;;;;;6231042;28;20491;-71
2021/10/30 06:07:19;;;;;;;3.28;2.90;;;21.40;53.30;;;;;;6245010;28;20530;-71
2021/10/30 06:10:19;;;;;;;3.75;2.85;;;21.40;53.30;;;;;;6243104;28;20464;-71
2021/10/30 06:13:20;;;;;;;3.35;2.63;;;21.40;53.30;;;;;;6252150;28;20035;-71
2021/10/30 06:16:22;;;;;;;3.88;2.85;;;21.40;53.30;;;;;;6265801;28;20683;-71
2021/10/30 06:19:24;;;;;;;3.20;2.80;;;21.40;53.20;;;;;;6255114;28;20509;-71
2021/10/30 06:22:25;;;;;;;3.30;2.85;;;21.40;53.20;;;;;;6249648;28;20021;-71
2021/10/30 06:25:25;;;;;;;4.13;3.10;;;21.40;53.30;;;;;;6255967;28;20399;-71
2021/10/30 06:28:26;;;;;;;4.00;3.08;;;21.40;53.20;;;;;;6245586;28;20407;-70
2021/10/30 06:31:27;;;;;;;5.68;2.95;;;21.40;53.20;;;;;;6247212;28;20047;-71
2021/10/30 06:34:28;;;;;;;3.60;2.90;;;21.40;53.20;;;;;;6252965;28;20108;-71
2021/10/30 06:37:28;;;;;;;4.00;3.00;;;21.40;53.20;;;;;;6254843;28;20033;-71
2021/10/30 06:40:29;;;;;;;4.68;2.90;;;21.40;53.20;;;;;;6265507;28;20318;-71
2021/10/30 06:43:31;;;;;;;3.75;2.80;;;21.40;53.20;;;;;;6242876;28;20030;-71
2021/10/30 06:46:31;;;;;;;3.03;2.58;;;21.40;53.20;;;;;;6244298;28;20056;-71
2021/10/30 06:49:33;;;;;;;4.07;3.15;;;21.40;53.20;;;;;;6254677;28;20039;-71
2021/10/30 06:52:40;;;;;;;6.65;3.25;;;21.40;53.20;;;;;;6254141;28;20067;-71
2021/10/30 06:55:43;;;;;;;6.03;3.08;;;21.40;53.30;;;;;;6256041;28;20045;-74
2021/10/30 06:58:43;;;;;;;32.67;20.20;;;21.40;53.60;;;;;;6243992;28;20088;-74
2021/10/30 07:01:44;;;;;;;64.68;39.22;;;21.40;54.00;;;;;;6266202;28;20496;-73
2021/10/30 07:04:44;;;;;;;163.32;85.63;;;21.40;54.10;;;;;;6268265;28;20090;-73
2021/10/30 07:07:45;;;;;;;272.45;127.38;;;21.40;54.20;;;;;;6268333;28;20496;-73
2021/10/30 07:10:45;;;;;;;124.22;59.63;;;21.40;54.50;;;;;;6269499;28;20091;-74
2021/10/30 07:13:46;;;;;;;90.82;42.13;;;21.40;54.40;;;;;;6249760;28;20021;-73
2021/10/30 07:16:47;;;;;;;102.90;46.10;;;21.40;54.20;;;;;;6245158;28;20560;-73
2021/10/30 07:19:48;;;;;;;68.95;31.63;;;21.40;54.20;;;;;;6243143;28;20494;-73
2021/10/30 07:22:51;;;;;;;64.43;26.75;;;21.40;54.10;;;;;;6243239;28;20032;-73
2021/10/30 07:25:51;;;;;;;57.67;25.33;;;21.40;54.10;;;;;;6247136;28;20037;-73
2021/10/30 07:28:52;;;;;;;52.97;22.00;;;21.40;54.00;;;;;;6243128;28;20115;-70
2021/10/30 07:31:53;;;;;;;51.42;21.75;;;21.40;53.90;;;;;;6257481;28;20100;-70
2021/10/30 07:34:54;;;;;;;47.63;20.35;;;21.40;53.90;;;;;;6264171;28;20060;-70
2021/10/30 07:37:59;;;;;;;47.25;19.52;;;21.40;53.80;;;;;;6255564;28;20040;-70
2021/10/30 07:41:00;;;;;;;40.65;18.55;;;21.40;53.80;;;;;;6247437;28;20482;-70
2021/10/30 07:44:00;;;;;;;40.58;17.55;;;21.40;53.80;;;;;;6242684;28;20032;-70
2021/10/30 07:47:02;;;;;;;36.97;17.13;;;21.40;53.80;;;;;;6232650;28;20479;-70
2021/10/30 07:50:04;;;;;;;37.35;16.70;;;21.40;53.70;;;;;;6218746;28;20052;-70
2021/10/30 07:53:07;;;;;;;38.20;16.33;;;21.40;53.70;;;;;;6256529;28;20083;-70
2021/10/30 07:56:08;;;;;;;36.08;14.98;;;21.40;53.70;;;;;;6264482;28;20130;-70
2021/10/30 07:59:08;;;;;;;29.55;13.88;;;21.40;53.70;;;;;;6242240;28;20467;-70
2021/10/30 08:02:09;;;;;;;30.63;13.30;;;21.40;53.70;;;;;;6252213;28;20029;-70
2021/10/30 08:05:11;;;;;;;29.55;13.45;;;21.40;53.60;;;;;;6268412;28;20027;-70
2021/10/30 08:08:12;;;;;;;27.77;13.07;;;21.40;53.70;;;;;;6250464;28;20029;-71
2021/10/30 08:11:12;;;;;;;19.90;11.02;;;21.40;53.60;;;;;;6243090;28;20549;-71
2021/10/30 08:14:13;;;;;;;24.08;11.70;;;21.40;53.60;;;;;;6268604;28;20033;-71
2021/10/30 08:17:14;;;;;;;21.05;11.15;;;21.40;53.60;;;;;;6261053;28;20021;-71
2021/10/30 08:20:14;;;;;;;23.75;11.07;;;21.40;53.60;;;;;;6242686;28;20096;-71
2021/10/30 08:23:15;;;;;;;21.30;10.15;;;21.40;53.60;;;;;;6258657;28;20037;-71
2021/10/30 08:26:18;;;;;;;21.85;9.98;;;21.40;53.60;;;;;;6267089;28;20033;-71
2021/10/30 08:29:19;;;;;;;19.38;9.50;;;21.40;53.60;;;;;;6265658;28;20021;-71
2021/10/30 08:32:19;;;;;;;17.55;9.73;;;21.40;53.60;;;;;;6250939;28;20212;-71
2021/10/30 08:35:20;;;;;;;16.73;8.75;;;21.40;53.60;;;;;;6242431;28;20395;-70
2021/10/30 08:38:21;;;;;;;18.05;8.93;;;21.40;53.60;;;;;;6264306;28;20056;-70
2021/10/30 08:41:22;;;;;;;16.17;9.25;;;21.40;53.60;;;;;;6267390;28;20039;-71
2021/10/30 08:44:23;;;;;;;17.75;9.10;;;21.40;53.60;;;;;;6266081;28;20045;-72
2021/10/30 08:47:24;;;;;;;17.52;8.75;;;21.40;53.50;;;;;;6241126;28;20033;-72
2021/10/30 08:50:27;;;;;;;14.82;8.02;;;21.40;53.60;;;;;;6254573;28;20092;-71
2021/10/30 08:53:28;;;;;;;14.60;7.80;;;21.40;53.50;;;;;;6246495;28;20048;-71
2021/10/30 08:56:28;;;;;;;14.90;8.30;;;21.40;53.50;;;;;;6252349;28;20035;-72
2021/10/30 08:59:44;;;;;;;12.10;7.35;;;21.40;53.50;;;;;;6270438;28;20232;-71
2021/10/30 09:02:52;;;;;;;15.23;7.95;;;21.40;53.50;;;;;;6271697;28;20025;-71
2021/10/30 09:06:00;;;;;;;11.50;6.78;;;21.40;53.50;;;;;;6250330;28;20021;-71
2021/10/30 09:09:04;;;;;;;11.77;7.00;;;21.40;53.50;;;;;;6268768;28;20029;-71
2021/10/30 09:12:05;;;;;;;12.98;7.07;;;21.40;53.40;;;;;;6271624;28;20044;-72
2021/10/30 09:15:07;;;;;;;11.32;6.18;;;21.40;53.40;;;;;;6269986;28;20060;-71
2021/10/30 09:18:29;;;;;;;10.93;6.68;;;21.40;53.40;;;;;;6259299;28;20551;-71
2021/10/30 09:21:32;;;;;;;12.77;6.43;;;21.40;53.40;;;;;;6245068;28;20025;-71
2021/10/30 09:24:51;;;;;;;11.65;6.03;;;21.40;53.50;;;;;;6259863;28;20047;-71
2021/10/30 09:27:55;;;;;;;12.18;6.57;;;21.40;53.40;;;;;;6261308;28;20021;-72
2021/10/30 09:31:06;;;;;;;9.35;5.80;;;21.40;54.10;;;;;;6269770;28;20021;-71
2021/10/30 09:34:09;;;;;;;10.85;6.28;;;21.40;53.40;;;;;;6271261;28;20025;-71
2021/10/30 09:37:21;;;;;;;9.45;5.50;;;21.40;53.40;;;;;;6269171;28;20074;-72
2021/10/30 09:40:40;;;;;;;9.25;5.68;;;21.40;53.40;;;;;;6269589;28;20029;-70
2021/10/30 09:44:07;;;;;;;10.07;5.25;;;21.40;53.40;;;;;;6240502;28;20025;-72
2021/10/30 09:47:21;;;;;;;8.65;5.40;;;21.40;53.40;;;;;;6249482;28;20502;-71
2021/10/30 09:50:29;;;;;;;9.77;5.43;;;21.40;53.30;;;;;;6270169;28;20465;-71
2021/10/30 09:53:39;;;;;;;9.20;5.63;;;21.40;53.40;;;;;;6270366;28;20017;-71
2021/10/30 09:56:50;;;;;;;8.07;5.20;;;21.40;53.40;;;;;;6270067;28;20104;-71
2021/10/30 09:59:53;;;;;;;10.07;5.32;;;21.40;53.30;;;;;;6271616;28;20052;-72
2021/10/30 10:02:59;;;;;;;11.95;5.03;;;21.40;53.30;;;;;;6272279;28;20549;-72
2021/10/30 10:06:02;;;;;;;8.85;5.32;;;21.40;53.30;;;;;;6270959;28;20051;-70
2021/10/30 10:09:03;;;;;;;7.80;5.07;;;21.40;53.30;;;;;;6268467;28;20478;-70
2021/10/30 10:12:06;;;;;;;7.55;5.03;;;21.40;53.30;;;;;;6269596;28;20087;-72
2021/10/30 10:15:07;;;;;;;8.88;4.90;;;21.40;53.30;;;;;;6267890;28;20037;-72
2021/10/30 10:18:09;;;;;;;7.97;4.90;;;21.40;53.40;;;;;;6254558;28;20037;-72
2021/10/30 10:21:12;;;;;;;7.22;4.55;;;21.40;53.30;;;;;;6245009;28;20025;-72
2021/10/30 10:24:18;;;;;;;6.75;4.25;;;21.40;53.40;;;;;;6268527;28;20029;-72
2021/10/30 10:27:35;;;;;;;6.20;4.15;;;21.40;53.30;;;;;;6267060;28;20382;-71
2021/10/30 10:30:54;;;;;;;7.45;4.38;;;21.40;53.40;;;;;;6245853;28;20036;-72
2021/10/30 10:34:12;;;;;;;7.20;4.47;;;21.50;53.50;;;;;;6271628;28;20029;-72
2021/10/30 10:37:13;;;;;;;6.82;4.18;;;21.40;53.30;;;;;;6244018;28;20040;-71
2021/10/30 10:40:31;;;;;;;6.00;4.15;;;21.40;53.30;;;;;;6235603;28;20076;-71
2021/10/30 10:43:45;;;;;;;6.15;4.18;;;21.40;53.40;;;;;;6249511;28;20028;-70
2021/10/30 10:46:51;;;;;;;9.68;4.30;;;21.40;53.40;;;;;;6241261;28;20061;-68
2021/10/30 10:50:05;;;;;;;;;;;21.40;53.40;;;;;;6219681;28;20034;-68
2021/10/30 10:53:07;;;;;;;5.93;3.95;;;21.40;53.40;;;;;;6249085;28;19912;-70
2021/10/30 10:56:09;;;;;;;9.60;4.70;;;21.40;53.40;;;;;;6240558;28;20021;-70
2021/10/30 10:59:12;;;;;;;7.40;4.20;;;21.40;53.40;;;;;;6238639;28;20029;-70
2021/10/30 11:02:20;;;;;;;7.80;4.13;;;21.40;53.40;;;;;;6229452;28;20104;-71
2021/10/30 11:05:21;;;;;;;7.88;4.18;;;21.40;53.50;;;;;;6263060;28;20048;-71
2021/10/30 11:08:29;;;;;;;16.23;4.00;;;21.40;53.60;;;;;;6252796;28;20028;-70
2021/10/30 11:11:30;;;;;;;18.17;5.10;;;21.40;53.60;;;;;;6238472;28;20124;-67
2021/10/30 11:14:32;;;;;;;7.35;5.30;;;21.40;53.00;;;;;;6240445;28;20029;-66
2021/10/30 11:17:56;;;;;;;14.48;6.47;;;21.40;53.20;;;;;;6241653;28;20105;-65
2021/10/30 11:21:29;;;;;;;18.30;6.80;;;21.40;52.70;;;;;;6235855;28;20087;-66
2021/10/30 11:24:32;;;;;;;11.48;6.05;;;21.40;51.10;;;;;;6246219;28;20080;-66
2021/10/30 11:27:32;;;;;;;8.45;6.13;;;21.40;51.50;;;;;;6262452;28;20518;-66
2021/10/30 11:30:41;;;;;;;10.52;5.47;;;21.40;51.70;;;;;;6242130;28;20034;-66
2021/10/30 11:33:43;;;;;;;16.83;5.70;;;21.40;52.00;;;;;;6267594;28;20108;-66
2021/10/30 11:36:43;;;;;;;8.43;5.03;;;21.40;52.10;;;;;;6253133;28;20057;-66
2021/10/30 11:39:46;;;;;;;11.32;5.20;;;21.40;52.30;;;;;;6253939;28;20078;-66
2021/10/30 11:42:47;;;;;;;10.30;5.07;;;21.40;52.20;;;;;;6258076;28;20020;-66
2021/10/30 11:45:47;;;;;;;6.82;4.60;;;21.40;52.30;;;;;;6254230;28;20368;-65
2021/10/30 11:48:50;;;;;;;7.65;4.50;;;21.40;52.40;;;;;;6241737;28;20498;-67
2021/10/30 11:51:51;;;;;;;11.15;5.05;;;21.40;52.40;;;;;;6222108;28;20041;-67
2021/10/30 11:54:57;;;;;;;8.13;4.88;;;21.40;52.50;;;;;;6262345;28;20017;-66
2021/10/30 11:57:57;;;;;;;6.63;4.43;;;21.40;52.70;;;;;;6264950;28;20036;-67
2021/10/30 12:00:58;;;;;;;7.53;4.75;;;21.50;53.00;;;;;;6243639;28;20025;-66
2021/10/30 12:04:10;;;;;;;6.10;4.50;;;21.50;53.50;;;;;;6243231;28;20087;-67
2021/10/30 12:07:12;;;;;;;7.50;4.53;;;21.50;53.90;;;;;;6243310;28;20045;-67
2021/10/30 12:10:20;;;;;;;6.53;4.38;;;21.50;54.10;;;;;;6242992;28;20111;-68
2021/10/30 12:13:21;;;;;;;6.45;4.63;;;21.50;53.30;;;;;;6244086;28;20407;-68
2021/10/30 12:16:22;;;;;;;10.02;4.45;;;21.50;53.40;;;;;;6233018;28;20062;-68
2021/10/30 12:19:26;;;;;;;7.35;4.50;;;21.50;53.10;;;;;;6253961;28;20376;-68
2021/10/30 12:22:30;;;;;;;8.55;4.55;;;21.50;53.00;;;;;;6251115;28;20104;-66
2021/10/30 12:25:31;;;;;;;9.67;4.50;;;21.60;53.00;;;;;;6247456;28;20056;-66
2021/10/30 12:28:36;;;;;;;8.32;4.30;;;21.60;52.90;;;;;;6257002;28;20514;-67
2021/10/30 12:31:37;;;;;;;9.98;4.43;;;21.60;52.90;;;;;;6267295;28;20067;-66
2021/10/30 12:34:58;;;;;;;7.93;4.63;;;21.60;52.80;;;;;;6251227;28;20029;-66
2021/10/30 12:38:18;;;;;;;8.75;4.45;;;21.60;52.80;;;;;;6243345;28;20040;-66
2021/10/30 12:41:20;;;;;;;6.38;4.50;;;21.60;52.80;;;;;;6245140;28;20072;-66
2021/10/30 12:44:31;;;;;;;8.82;4.25;;;21.60;52.90;;;;;;6238358;28;20018;-66
2021/10/30 12:47:33;;;;;;;7.95;3.95;;;21.60;53.00;;;;;;6240665;28;20025;-66
2021/10/30 12:50:34;;;;;;;6.55;3.88;;;21.60;53.10;;;;;;6246389;28;20036;-66
2021/10/30 12:53:37;;;;;;;11.38;4.40;;;21.60;53.10;;;;;;6246185;28;20060;-66
2021/10/30 12:56:42;;;;;;;15.73;8.77;;;21.60;53.20;;;;;;6246257;28;20035;-66
2021/10/30 12:59:43;;;;;;;47.78;21.98;;;21.60;53.40;;;;;;6244027;28;20408;-66
2021/10/30 13:02:44;;;;;;;44.85;20.83;;;21.60;53.50;;;;;;6246280;28;20060;-65
2021/10/30 13:05:45;;;;;;;70.38;29.05;;;21.60;53.60;;;;;;6248484;28;20022;-66
2021/10/30 13:08:51;;;;;;;57.50;23.48;;;21.60;53.70;;;;;;6250963;28;20105;-66
2021/10/30 13:11:52;;;;;;;67.22;27.77;;;21.60;53.80;;;;;;6246609;28;20034;-66
2021/10/30 13:14:55;;;;;;;98.82;34.20;;;21.50;53.70;;;;;;6258673;28;20171;-66
2021/10/30 13:17:57;;;;;;;92.80;34.70;;;21.60;53.80;;;;;;6246725;28;20037;-67
2021/10/30 13:20:57;;;;;;;88.65;29.98;;;21.50;53.80;;;;;;6244982;28;20459;-65
2021/10/30 13:24:00;;;;;;;70.10;24.88;;;21.50;53.40;;;;;;6255251;28;20029;-65
2021/10/30 13:27:00;;;;;;;83.85;27.73;;;21.50;52.40;;;;;;6263582;28;20025;-65
2021/10/30 13:30:01;;;;;;;97.28;33.47;;;21.50;52.80;;;;;;6240699;28;20034;-66
2021/10/30 13:33:02;;;;;;;98.25;35.30;;;21.50;53.10;;;;;;6245836;28;20033;-66
2021/10/30 13:36:03;;;;;;;98.60;32.45;;;21.50;53.20;;;;;;6252925;28;20029;-67
2021/10/30 13:39:05;;;;;;;81.25;29.50;;;21.50;53.20;;;;;;6253619;28;20057;-67
2021/10/30 13:42:06;;;;;;;83.15;27.98;;;21.50;53.30;;;;;;6253686;28;20051;-67
2021/10/30 13:45:07;;;;;;;65.97;25.88;;;21.50;52.40;;;;;;6263526;28;20238;-67
2021/10/30 13:48:08;;;;;;;64.00;23.65;;;21.50;51.80;;;;;;6245651;28;20196;-67
2021/10/30 13:51:08;;;;;;;61.30;23.10;;;21.50;51.30;;;;;;6251475;28;20037;-69
2021/10/30 13:54:09;;;;;;;46.30;20.15;;;21.50;51.80;;;;;;6248411;28;20475;-67
2021/10/30 13:57:09;;;;;;;50.15;19.92;;;21.50;51.10;;;;;;6254849;28;20044;-67
2021/10/30 14:00:12;;;;;;;52.78;19.65;;;21.50;50.30;;;;;;6247761;28;20562;-68
2021/10/30 14:03:12;;;;;;;47.42;19.38;;;21.50;49.50;;;;;;6244378;28;20026;-67
2021/10/30 14:06:14;;;;;;;42.58;18.27;;;21.50;49.40;;;;;;6220707;28;20080;-67
2021/10/30 14:09:14;;;;;;;48.45;19.02;;;21.50;49.00;;;;;;6242266;28;20087;-66
2021/10/30 14:12:15;;;;;;;45.45;18.75;;;21.50;49.40;;;;;;6264320;28;20040;-67
2021/10/30 14:15:15;;;;;;;49.85;20.63;;;21.50;49.80;;;;;;6232832;28;20033;-67
2021/10/30 14:18:16;;;;;;;37.67;18.98;;;21.50;50.20;;;;;;6252952;28;20084;-67
2021/10/30 14:21:17;;;;;;;44.40;18.55;;;21.50;50.40;;;;;;6218268;28;20099;-67
2021/10/30 14:24:18;;;;;;;39.22;17.92;;;21.50;50.70;;;;;;6252002;28;20507;-67
2021/10/30 14:27:19;;;;;;;36.10;17.75;;;21.50;50.90;;;;;;6264068;28;20051;-67
2021/10/30 14:30:19;;;;;;;38.40;19.02;;;21.50;51.30;;;;;;6249343;28;20478;-67
2021/10/30 14:33:20;;;;;;;33.63;16.10;;;21.50;51.20;;;;;;6238035;28;20017;-67
2021/10/30 14:36:21;;;;;;;36.17;16.58;;;21.50;52.00;;;;;;6250810;28;20098;-68
2021/10/30 14:39:21;;;;;;;30.35;15.88;;;21.60;52.20;;;;;;6250961;28;20412;-68
2021/10/30 14:42:22;;;;;;;30.70;15.63;;;21.50;52.10;;;;;;6253185;28;20109;-67
2021/10/30 14:45:24;;;;;;;25.08;13.23;;;21.50;52.00;;;;;;6235232;28;20385;-68
2021/10/30 14:48:26;;;;;;;22.05;12.23;;;21.50;51.90;;;;;;6248947;28;20086;-68
2021/10/30 14:51:27;;;;;;;26.15;12.73;;;21.50;49.40;;;;;;6242627;28;20021;-68
2021/10/30 14:54:29;;;;;;;22.35;10.90;;;21.50;50.10;;;;;;6258875;28;20090;-68
2021/10/30 14:57:32;;;;;;;23.48;11.43;;;21.50;50.30;;;;;;6267776;28;20021;-67
2021/10/30 15:00:34;;;;;;;25.40;11.60;;;21.50;49.20;;;;;;6232800;28;20111;-68
2021/10/30 15:03:34;;;;;;;21.58;10.18;;;21.50;49.00;;;;;;6249556;28;20032;-68
2021/10/30 15:06:35;;;;;;;20.95;10.35;;;21.50;49.80;;;;;;6243263;28;20029;-68
2021/10/30 15:09:35;;;;;;;21.08;10.65;;;21.50;49.20;;;;;;6254093;28;20479;-68
2021/10/30 15:12:36;;;;;;;18.60;9.48;;;21.50;48.00;;;;;;6252506;28;20039;-69
2021/10/30 15:15:37;;;;;;;16.35;10.05;;;21.50;48.70;;;;;;6250305;28;20024;-68
2021/10/30 15:18:39;;;;;;;16.15;9.38;;;21.50;48.60;;;;;;6260266;28;20597;-68
2021/10/30 15:21:40;;;;;;;22.05;10.88;;;21.40;48.00;;;;;;6266674;28;20383;-68
2021/10/30 15:24:43;;;;;;;18.90;9.73;;;21.40;48.10;;;;;;6256943;28;20064;-67
2021/10/30 15:27:43;;;;;;;18.83;9.88;;;21.50;48.70;;;;;;6266950;28;20486;-67
2021/10/30 15:30:44;;;;;;;21.85;10.38;;;21.50;47.90;;;;;;6255709;28;20021;-68
2021/10/30 15:33:46;;;;;;;19.15;9.93;;;21.50;47.20;;;;;;6242982;28;20319;-67
2021/10/30 15:36:47;;;;;;;22.42;9.80;;;21.50;47.30;;;;;;6254239;28;20036;-67
2021/10/30 15:39:47;;;;;;;15.95;9.23;;;21.50;47.50;;;;;;6266881;28;20040;-67
2021/10/30 15:42:48;;;;;;;16.75;8.52;;;21.50;47.90;;;;;;6261241;28;20040;-68